Terminal Aerodrome Forecast
Issued by NWS Goodland, KS

Home | Current Version | Previous Version | Text Only | Print | Product List | Glossary On
Versions: 1 2 3 4 5 6 7 8 9 10 11 12 13 14 15 16 17 18 19 20 21
000
FTUS43 KGLD 310520
TAFGLD
TAF
KGLD 310520Z 3106/0106 12010KT P6SM VCTS SCT090CB
     FM310800 15011KT P6SM SCT100
     FM311200 18011KT P6SM SCT250
     FM311900 16010G16KT P6SM SCT250
     FM010300 14010KT P6SM BKN200 WS020/20025KT=

USA.gov is the U.S. government's official web portal to all federal, state and local government web resources and services.